MSC Bremen — A8LK7 — position and weather

sailwx.info

Track history (hours):
 
Tides and Currents Weather Stations Pressure Air Temp Water Temp Dewpoint Dewpoint Depression Visibility Wind Speed Wind Dir Waves Ship Positions

MSC Bremen

Last reported at 2017-Jan-20 07:33 UTC. Time now 2017-Jan-20 07:55 UTC.
Position N 40°37' W 074°03'.

Length 294 m; ; draft 13.7 m.

Type: Ship (hazmat cat A). MMSI: 636091270.

Date/timePositionNaut miles runAvg speedWind from/ knotsBaromVisibWave heightAir tempDewpointWater temp
2017-Jan-20 07:33N 40°37' W 074°03'9 9.0
2017-Jan-20 06:33N 40°30' W 073°56'8 8.4
2017-Jan-20 05:33N 40°27' W 073°45'7 7.0
2017-Jan-20 04:33N 40°28' W 073°36'  
2017-Jan-13 17:23N 49°46' W 005°17'1310.4
2017-Jan-13 16:10N 49°49' W 004°58'812.2
2017-Jan-13 15:33N 49°49' W 004°46'1111.6
2017-Jan-13 14:33N 49°50' W 004°29'1211.5
2017-Jan-13 13:33N 49°51' W 004°11'1212.1
2017-Jan-13 12:33N 49°52' W 003°52'6412.3
2017-Jan-13 07:21N 50°05' W 002°15'810.1
2017-Jan-13 06:33N 50°07' W 002°02'7 7.0
2017-Jan-13 05:33N 50°08' W 001°52'9 9.4
2017-Jan-13 04:33N 50°08' W 001°37'9 9.2
2017-Jan-13 03:33N 50°07' W 001°23'8 7.8
2017-Jan-13 02:33N 49°59' W 001°21'1010.3
2017-Jan-13 01:33N 49°53' W 001°09'1212.0
2017-Jan-13 00:33N 49°46' W 000°53'10 9.6
2017-Jan-12 23:33N 49°41' W 000°41'8 8.2
2017-Jan-12 22:33N 49°37' W 000°30'5 5.1
2017-Jan-12 21:33N 49°34' W 000°23'3 3.1
2017-Jan-12 20:33N 49°33' W 000°19'3 3.4
2017-Jan-12 19:33N 49°32' W 000°14'2 1.7
2017-Jan-12 18:33N 49°32' W 000°11'2 2.3
2017-Jan-12 17:33N 49°32' W 000°08'1010.5
2017-Jan-12 16:34N 49°28' E 000°07'1 0.7
2017-Jan-12 15:33N 49°28' E 000°08'0 0.0
2017-Jan-12 14:33N 49°28' E 000°08'0 0.0
2017-Jan-12 13:33N 49°28' E 000°08'0 0.0
2017-Jan-12 12:33N 49°28' E 000°08'0 0.0
2017-Jan-12 11:33N 49°28' E 000°08'0 0.0
2017-Jan-12 10:33N 49°28' E 000°08'0 0.0
2017-Jan-12 09:33N 49°28' E 000°08'0 0.0
2017-Jan-12 08:33N 49°28' E 000°08'0 0.0
2017-Jan-12 07:33N 49°28' E 000°08'0 0.0
2017-Jan-12 06:33N 49°28' E 000°08'0 0.0
2017-Jan-12 05:33N 49°28' E 000°08'0 0.0
2017-Jan-12 04:33N 49°28' E 000°08'0 0.0
2017-Jan-12 03:33N 49°28' E 000°08'0 0.0
2017-Jan-12 02:33N 49°28' E 000°08'0 0.0
2017-Jan-12 01:33N 49°28' E 000°08'0 0.0
2017-Jan-12 00:33N 49°28' E 000°08'0 0.0
2017-Jan-11 23:33N 49°28' E 000°08'0 0.0
2017-Jan-11 22:33N 49°28' E 000°08'0 0.0
2017-Jan-11 21:33N 49°28' E 000°08'0 0.0
2017-Jan-11 20:33N 49°28' E 000°08'3 2.9
2017-Jan-11 19:34N 49°29' E 000°04'1110.5
2017-Jan-11 18:33N 49°33' W 000°11'7 6.9
2017-Jan-11 17:33N 49°40' W 000°12'1514.7
2017-Jan-11 16:33N 49°55' W 000°11'1717.5
2017-Jan-11 15:34N 50°12' W 000°13'1616.1
2017-Jan-11 14:34N 50°28' W 000°07'1919.3
2017-Jan-11 13:34N 50°33' E 000°22'1818.4
2017-Jan-11 12:34N 50°40' E 000°49'1817.1
2017-Jan-11 11:31N 50°51' E 001°12'1515.3
2017-Jan-11 10:33N 51°01' E 001°28'1615.5
2017-Jan-11 09:34N 51°12' E 001°45'1716.5
2017-Jan-11 08:33N 51°24' E 002°04'1616.3
2017-Jan-11 07:34N 51°23' E 002°30'1313.3
2017-Jan-11 06:33N 51°25' E 002°50'1919.4
2017-Jan-11 05:33N 51°24' E 003°21'1312.8
2017-Jan-11 04:32N 51°25' E 003°42'9 9.0
2017-Jan-11 03:33N 51°22' E 003°56'6 6.2
2017-Jan-11 02:33N 51°22' E 004°06'8 7.8
2017-Jan-11 01:33N 51°18' E 004°16'1 0.8
2017-Jan-11 00:33N 51°17' E 004°15'0 0.0
2017-Jan-10 23:33N 51°17' E 004°15'0 0.0
2017-Jan-10 22:30N 51°17' E 004°15'0 0.0
2017-Jan-10 21:33N 51°17' E 004°15'0 0.0
2017-Jan-10 20:33N 51°17' E 004°15'0 0.0
2017-Jan-10 19:33N 51°17' E 004°15'0 0.0
2017-Jan-10 18:30N 51°17' E 004°15'0 0.0
2017-Jan-10 17:33N 51°17' E 004°15'0 0.0
2017-Jan-10 16:33N 51°17' E 004°15'0 0.0
2017-Jan-10 15:33N 51°17' E 004°15'0 0.0
2017-Jan-10 14:33N 51°17' E 004°15'0 0.0
2017-Jan-10 13:33N 51°17' E 004°15'0 0.0
2017-Jan-10 12:33N 51°17' E 004°15'0 0.0
2017-Jan-10 11:30N 51°17' E 004°15'0 0.0
2017-Jan-10 10:30N 51°17' E 004°15'0 0.0
2017-Jan-10 09:33N 51°17' E 004°15'0 0.0
2017-Jan-10 08:30N 51°17' E 004°15'  
Track history (hours):
 
Tides and Currents Weather Stations Pressure Air Temp Water Temp Dewpoint Dewpoint Depression Visibility Wind Speed Wind Dir Waves Ship Positions

MSC Bremen

Last reported at 2017-Jan-20 07:33 UTC. Time now 2017-Jan-20 07:55 UTC.
Position N 40°37' W 074°03'.

Length 294 m; ; draft 13.7 m.

Type: Ship (hazmat cat A). MMSI: 636091270.

Date/timePositionNaut miles runAvg speedWind from/ knotsBaromVisibWave heightAir tempDewpointWater temp
2017-Jan-20 07:33N 40°37' W 074°03'9 9.0
2017-Jan-20 06:33N 40°30' W 073°56'8 8.4
2017-Jan-20 05:33N 40°27' W 073°45'7 7.0
2017-Jan-20 04:33N 40°28' W 073°36'  
2017-Jan-13 17:23N 49°46' W 005°17'1310.4
2017-Jan-13 16:10N 49°49' W 004°58'812.2
2017-Jan-13 15:33N 49°49' W 004°46'1111.6
2017-Jan-13 14:33N 49°50' W 004°29'1211.5
2017-Jan-13 13:33N 49°51' W 004°11'1212.1
2017-Jan-13 12:33N 49°52' W 003°52'6412.3
2017-Jan-13 07:21N 50°05' W 002°15'810.1
2017-Jan-13 06:33N 50°07' W 002°02'7 7.0
2017-Jan-13 05:33N 50°08' W 001°52'9 9.4
2017-Jan-13 04:33N 50°08' W 001°37'9 9.2
2017-Jan-13 03:33N 50°07' W 001°23'8 7.8
2017-Jan-13 02:33N 49°59' W 001°21'1010.3
2017-Jan-13 01:33N 49°53' W 001°09'1212.0
2017-Jan-13 00:33N 49°46' W 000°53'10 9.6
2017-Jan-12 23:33N 49°41' W 000°41'8 8.2
2017-Jan-12 22:33N 49°37' W 000°30'5 5.1
2017-Jan-12 21:33N 49°34' W 000°23'3 3.1
2017-Jan-12 20:33N 49°33' W 000°19'3 3.4
2017-Jan-12 19:33N 49°32' W 000°14'2 1.7
2017-Jan-12 18:33N 49°32' W 000°11'2 2.3
2017-Jan-12 17:33N 49°32' W 000°08'1010.5
2017-Jan-12 16:34N 49°28' E 000°07'1 0.7
2017-Jan-12 15:33N 49°28' E 000°08'0 0.0
2017-Jan-12 14:33N 49°28' E 000°08'0 0.0
2017-Jan-12 13:33N 49°28' E 000°08'0 0.0
2017-Jan-12 12:33N 49°28' E 000°08'0 0.0
2017-Jan-12 11:33N 49°28' E 000°08'0 0.0
2017-Jan-12 10:33N 49°28' E 000°08'0 0.0
2017-Jan-12 09:33N 49°28' E 000°08'0 0.0
2017-Jan-12 08:33N 49°28' E 000°08'0 0.0
2017-Jan-12 07:33N 49°28' E 000°08'0 0.0
2017-Jan-12 06:33N 49°28' E 000°08'0 0.0
2017-Jan-12 05:33N 49°28' E 000°08'0 0.0
2017-Jan-12 04:33N 49°28' E 000°08'0 0.0
2017-Jan-12 03:33N 49°28' E 000°08'0 0.0
2017-Jan-12 02:33N 49°28' E 000°08'0 0.0
2017-Jan-12 01:33N 49°28' E 000°08'0 0.0
2017-Jan-12 00:33N 49°28' E 000°08'0 0.0
2017-Jan-11 23:33N 49°28' E 000°08'0 0.0
2017-Jan-11 22:33N 49°28' E 000°08'0 0.0
2017-Jan-11 21:33N 49°28' E 000°08'0 0.0
2017-Jan-11 20:33N 49°28' E 000°08'3 2.9
2017-Jan-11 19:34N 49°29' E 000°04'1110.5
2017-Jan-11 18:33N 49°33' W 000°11'7 6.9
2017-Jan-11 17:33N 49°40' W 000°12'1514.7
2017-Jan-11 16:33N 49°55' W 000°11'1717.5
2017-Jan-11 15:34N 50°12' W 000°13'1616.1
2017-Jan-11 14:34N 50°28' W 000°07'1919.3
2017-Jan-11 13:34N 50°33' E 000°22'1818.4
2017-Jan-11 12:34N 50°40' E 000°49'1817.1
2017-Jan-11 11:31N 50°51' E 001°12'1515.3
2017-Jan-11 10:33N 51°01' E 001°28'1615.5
2017-Jan-11 09:34N 51°12' E 001°45'1716.5
2017-Jan-11 08:33N 51°24' E 002°04'1616.3
2017-Jan-11 07:34N 51°23' E 002°30'1313.3
2017-Jan-11 06:33N 51°25' E 002°50'1919.4
2017-Jan-11 05:33N 51°24' E 003°21'1312.8
2017-Jan-11 04:32N 51°25' E 003°42'9 9.0
2017-Jan-11 03:33N 51°22' E 003°56'6 6.2
2017-Jan-11 02:33N 51°22' E 004°06'8 7.8
2017-Jan-11 01:33N 51°18' E 004°16'1 0.8
2017-Jan-11 00:33N 51°17' E 004°15'0 0.0
2017-Jan-10 23:33N 51°17' E 004°15'0 0.0
2017-Jan-10 22:30N 51°17' E 004°15'0 0.0
2017-Jan-10 21:33N 51°17' E 004°15'0 0.0
2017-Jan-10 20:33N 51°17' E 004°15'0 0.0
2017-Jan-10 19:33N 51°17' E 004°15'0 0.0
2017-Jan-10 18:30N 51°17' E 004°15'0 0.0
2017-Jan-10 17:33N 51°17' E 004°15'0 0.0
2017-Jan-10 16:33N 51°17' E 004°15'0 0.0
2017-Jan-10 15:33N 51°17' E 004°15'0 0.0
2017-Jan-10 14:33N 51°17' E 004°15'0 0.0
2017-Jan-10 13:33N 51°17' E 004°15'0 0.0
2017-Jan-10 12:33N 51°17' E 004°15'0 0.0
2017-Jan-10 11:30N 51°17' E 004°15'0 0.0
2017-Jan-10 10:30N 51°17' E 004°15'0 0.0
2017-Jan-10 09:33N 51°17' E 004°15'0 0.0
2017-Jan-10 08:30N 51°17' E 004°15'  

Dump ship's entire track history